DNKT

Katsina / Yaradura Airport

Katsina, Nigeria
TAF DNKT 170950Z 1712/1818 06010KT CAVOK
Issued Valid From Valid To
Jan-17 @ 09:50 UTC
(yesterday)
Jan-17 @ 12:00 UTC
(24 hours ago)
Jan-18 @ 18:00 UTC
(in 6 hours)
Jan-17 @ 12:00 to Jan-18 @ 18:00
TAF DNKT 170950Z 1712/1818 06010KT CAVOK
Wind Visibility Clouds Conditions
60° at 10 knots 10,000+ meters
  • No significant clouds
TAF DNKT 170950Z 1712/1818 06010KT CAVOK
Issued Jan-17 @ 09:50 UTC
(yesterday)
Valid From Jan-17 @ 12:00 UTC
(24 hours ago)
Valid To Jan-18 @ 18:00 UTC
(in 6 hours)
Jan-17 @ 12:00 - Jan-18 @ 18:00
Wind Visibility
60° at 10 knots 10,000+ meters
Clouds
  • No significant clouds
Conditions